< < Back
Terminal Aerodrome Forecast


Current Version              Previous Versions:   1  2  3  4  5  6  7  8  9  

Terminal Aerodrome Forecast

112
FTUS44 KBMX 242300
TAFBHM
TAF
KBHM 242325Z 2500/2524 00000KT P6SM SKC=



Latest METAR

278
SAUS70 KWBC 251400 RRA
MTRBHM
METAR KBHM 251353Z 00000KT 10SM CLR 12/08 A3015 RMK AO2 SLP208
T01220083


USA.gov is the U.S. government's official web portal to all federal, state and local government web resources and services.